Time;durP1;ratioP1;P1;durP2;ratioP2;P2;SDS_P1;SDS_P2;PMS_P1;PMS_P2;Temp;Humidity;BMP_temperature;BMP_pressure;BME280_temperature;BME280_humidity;BME280_pressure;Samples;Min_cycle;Max_cycle;Signal;HPM_P1;HPM_P2
2021/12/04 00:02:05;;;;;;;2.03;1.93;;;-6.10;99.90;;;;;;5017285;28;20401;-79
2021/12/04 00:04:35;;;;;;;2.60;1.70;;;-4.50;99.90;;;;;;5019825;28;20470;-76
2021/12/04 00:07:03;;;;;;;1.43;1.37;;;-5.40;99.90;;;;;;5021179;28;20422;-74
2021/12/04 00:09:30;;;;;;;1.90;1.80;;;-6.50;99.90;;;;;;5020404;28;20459;-73
2021/12/04 00:12:01;;;;;;;1.90;1.80;;;-5.00;99.90;;;;;;5020116;28;20400;-72
2021/12/04 00:14:27;;;;;;;2.20;2.00;;;-6.10;99.90;;;;;;5020397;28;20455;-75
2021/12/04 00:16:54;;;;;;;1.93;1.83;;;-5.80;99.90;;;;;;5019959;28;20428;-71
2021/12/04 00:19:20;;;;;;;2.27;2.13;;;-5.30;99.90;;;;;;5019974;28;20437;-71
2021/12/04 00:21:46;;;;;;;2.33;2.13;;;-5.50;99.90;;;;;;5034966;28;20467;-74
2021/12/04 00:24:12;;;;;;;1.67;1.57;;;-5.10;99.90;;;;;;5020273;28;20492;-76
2021/12/04 00:26:38;;;;;;;1.47;1.37;;;-6.40;99.90;;;;;;5020611;28;20189;-74
2021/12/04 00:29:05;;;;;;;1.63;1.53;;;-5.00;99.90;;;;;;5020895;28;20449;-75
2021/12/04 00:31:32;;;;;;;2.13;2.00;;;-6.00;99.90;;;;;;5021321;28;20501;-73
2021/12/04 00:33:58;;;;;;;1.60;1.50;;;-6.00;99.90;;;;;;5021046;28;20420;-73
2021/12/04 00:49:56;;;;;;;2.80;1.80;;;-4.70;99.90;;;;;;5021900;28;20416;-78
2021/12/04 00:52:22;;;;;;;2.67;2.00;;;-5.30;99.90;;;;;;5020264;28;20726;-79
2021/12/04 00:54:48;;;;;;;2.53;1.90;;;-5.90;99.90;;;;;;5021485;28;20408;-77
2021/12/04 00:57:14;;;;;;;2.13;2.03;;;-5.70;99.90;;;;;;5020313;28;20172;-75
2021/12/04 00:59:40;;;;;;;3.53;2.10;;;-5.80;99.90;;;;;;5037212;28;20171;-79
2021/12/04 01:02:05;;;;;;;2.10;1.93;;;-5.90;99.90;;;;;;5021034;28;20254;-78
2021/12/04 01:04:32;;;;;;;1.63;1.53;;;-5.20;99.90;;;;;;5020663;28;20169;-74
2021/12/04 01:06:58;;;;;;;2.40;2.27;;;-5.10;99.90;;;;;;5021124;28;20173;-74
2021/12/04 01:09:25;;;;;;;2.87;2.27;;;-6.00;99.90;;;;;;5019754;28;20409;-72
2021/12/04 01:11:54;;;;;;;2.00;1.90;;;-4.80;99.90;;;;;;5021009;28;20491;-76
2021/12/04 01:14:23;;;;;;;1.83;1.73;;;-5.80;99.90;;;;;;5020558;28;20406;-77
2021/12/04 01:16:49;;;;;;;2.00;1.90;;;-5.80;99.90;;;;;;5020033;28;20420;-72
2021/12/04 01:19:15;;;;;;;2.43;2.30;;;-5.80;99.90;;;;;;5019052;28;20450;-73
2021/12/04 01:21:42;;;;;;;2.77;2.57;;;-5.40;99.90;;;;;;5020404;28;20402;-74
2021/12/04 01:24:08;;;;;;;2.20;2.10;;;-6.00;99.90;;;;;;5020466;28;20410;-73
2021/12/04 01:26:34;;;;;;;2.43;2.33;;;-5.90;99.90;;;;;;5020634;28;20486;-75
2021/12/04 01:29:00;;;;;;;1.70;1.60;;;-5.40;99.90;;;;;;5020573;28;20200;-79
2021/12/04 01:31:26;;;;;;;1.97;1.87;;;-5.20;99.90;;;;;;5020092;28;20168;-78
2021/12/04 01:33:52;;;;;;;1.77;1.67;;;-5.20;99.90;;;;;;5019678;28;20439;-74
2021/12/04 01:36:18;;;;;;;4.03;2.27;;;-5.10;99.90;;;;;;5019113;28;20171;-79
2021/12/04 01:38:43;;;;;;;2.00;1.90;;;-5.00;99.90;;;;;;5020461;28;20204;-78
2021/12/04 01:41:09;;;;;;;1.33;1.23;;;-5.50;99.90;;;;;;5019894;28;20168;-76
2021/12/04 01:43:36;;;;;;;2.03;1.73;;;-4.50;99.90;;;;;;5019326;28;20497;-78
2021/12/04 01:46:02;;;;;;;2.40;1.70;;;-3.70;99.90;;;;;;5020080;28;20198;-77
2021/12/04 01:48:28;;;;;;;2.13;1.97;;;-5.10;99.90;;;;;;5019181;28;20833;-76
2021/12/04 01:50:55;;;;;;;1.80;1.70;;;-5.50;99.90;;;;;;5020066;28;20429;-76
2021/12/04 01:53:22;;;;;;;1.67;1.57;;;-4.50;99.90;;;;;;5018755;28;20171;-75
2021/12/04 01:55:51;;;;;;;1.83;1.73;;;-5.50;99.90;;;;;;5019474;28;20428;-78
2021/12/04 01:58:17;;;;;;;2.70;1.80;;;-5.80;99.90;;;;;;5018890;28;20407;-78
2021/12/04 02:00:43;;;;;;;1.97;1.87;;;-5.10;99.90;;;;;;5019482;28;20486;-79
2021/12/04 02:03:12;;;;;;;2.27;2.10;;;-5.00;99.90;;;;;;5019276;28;20773;-77
2021/12/04 02:05:38;;;;;;;1.80;1.70;;;-4.80;99.90;;;;;;5018948;28;20175;-78
2021/12/04 02:08:06;;;;;;;2.03;1.93;;;-4.90;99.90;;;;;;5018463;28;20454;-79
2021/12/04 02:10:32;;;;;;;2.03;1.93;;;-5.20;99.90;;;;;;5019451;28;20396;-76
2021/12/04 02:12:59;;;;;;;2.17;1.83;;;-5.60;99.90;;;;;;5019428;28;20492;-75
2021/12/04 02:15:26;;;;;;;1.97;1.87;;;-5.50;99.90;;;;;;5019516;28;20403;-77
2021/12/04 02:17:52;;;;;;;1.90;1.80;;;-4.80;99.90;;;;;;5019503;28;20425;-74
2021/12/04 02:20:21;;;;;;;1.83;1.73;;;-5.50;99.90;;;;;;5019392;28;20418;-77
2021/12/04 02:22:49;;;;;;;1.60;1.50;;;-5.00;99.90;;;;;;5019950;28;20408;-81
2021/12/04 02:25:16;;;;;;;3.53;2.33;;;-3.80;99.90;;;;;;5019732;28;20409;-76
2021/12/04 02:27:43;;;;;;;2.20;2.10;;;-5.30;99.90;;;;;;5018595;28;20444;-77
2021/12/04 02:30:12;;;;;;;2.03;1.93;;;-3.80;99.90;;;;;;5019219;28;20395;-83
2021/12/04 02:32:39;;;;;;;2.00;1.90;;;-4.90;99.90;;;;;;5019451;28;20397;-82
2021/12/04 02:35:07;;;;;;;1.80;1.70;;;-5.30;99.90;;;;;;5019342;28;20384;-81
2021/12/04 02:37:34;;;;;;;1.67;1.57;;;-6.10;99.90;;;;;;5019714;28;20457;-79
2021/12/04 02:40:00;;;;;;;1.70;1.60;;;-5.60;99.90;;;;;;5019132;28;20404;-74
2021/12/04 02:42:30;;;;;;;2.33;1.60;;;-3.80;99.90;;;;;;5019322;28;20414;-76
2021/12/04 02:44:59;;;;;;;2.07;1.97;;;-5.40;99.90;;;;;;5018462;28;20425;-74
2021/12/04 02:47:27;;;;;;;2.17;2.07;;;-6.00;99.90;;;;;;5018509;28;20469;-79
2021/12/04 02:49:54;;;;;;;1.73;1.63;;;-6.10;99.90;;;;;;5019276;28;20396;-81
2021/12/04 02:52:20;;;;;;;1.50;1.40;;;-5.50;99.90;;;;;;5019810;28;20398;-72
2021/12/04 02:54:47;;;;;;;1.70;1.60;;;-5.80;99.90;;;;;;5034278;28;20417;-75
2021/12/04 02:57:15;;;;;;;1.77;1.30;;;-5.80;99.90;;;;;;5019064;28;20402;-75
2021/12/04 02:59:42;;;;;;;1.67;1.57;;;-5.80;99.90;;;;;;5018888;28;20385;-75
2021/12/04 03:02:17;;;;;;;1.80;1.70;;;-5.70;99.90;;;;;;5018105;28;20406;-71
2021/12/04 03:04:48;;;;;;;1.77;1.67;;;-5.90;99.90;;;;;;5017383;28;20502;-72
2021/12/04 03:07:14;;;;;;;1.60;1.50;;;-5.70;99.90;;;;;;5017296;28;20407;-84
2021/12/04 03:09:41;;;;;;;1.50;1.40;;;-5.40;99.90;;;;;;5020011;28;20410;-80
2021/12/04 03:12:08;;;;;;;5.50;3.07;;;-5.30;99.90;;;;;;5019000;28;20219;-77
2021/12/04 03:14:34;;;;;;;1.73;1.73;;;-5.50;99.90;;;;;;5018578;28;20400;-81
2021/12/04 03:17:01;;;;;;;1.63;1.47;;;-5.20;99.90;;;;;;5018601;28;20427;-81
2021/12/04 03:19:27;;;;;;;1.40;1.30;;;-4.90;99.90;;;;;;5019459;28;20410;-80
2021/12/04 03:21:54;;;;;;;1.57;1.47;;;-5.30;99.90;;;;;;5019274;28;20409;-86
2021/12/04 03:24:20;;;;;;;1.63;1.53;;;-3.90;99.90;;;;;;5019043;28;20424;-79
2021/12/04 03:26:49;;;;;;;1.17;1.10;;;-3.70;99.90;;;;;;5018564;28;20412;-78
2021/12/04 03:29:19;;;;;;;1.53;1.53;;;-5.30;99.90;;;;;;5016680;28;20483;-80
2021/12/04 03:42:24;;;;;;;1.50;1.40;;;-5.00;99.90;;;;;;5018531;28;20724;-79
2021/12/04 03:44:50;;;;;;;1.53;1.43;;;-4.80;99.90;;;;;;5018613;28;20405;-77
2021/12/04 03:47:17;;;;;;;1.40;1.40;;;-5.10;99.90;;;;;;5018356;28;20210;-81
2021/12/04 03:49:48;;;;;;;1.60;1.50;;;-5.00;99.90;;;;;;5018742;28;20200;-76
2021/12/04 03:52:14;;;;;;;3.20;1.70;;;-5.20;99.90;;;;;;5018638;28;20402;-79
2021/12/04 03:54:40;;;;;;;1.83;1.63;;;-5.20;99.90;;;;;;5018100;28;20874;-80
2021/12/04 03:57:07;;;;;;;1.53;1.50;;;-3.40;99.90;;;;;;5017746;28;20425;-77
2021/12/04 03:59:37;;;;;;;1.80;1.70;;;-3.60;99.90;;;;;;5017460;28;20489;-78
2021/12/04 04:02:06;;;;;;;2.10;1.90;;;-5.30;99.90;;;;;;5017298;28;20412;-76
2021/12/04 04:04:32;;;;;;;1.30;1.30;;;-5.20;99.90;;;;;;5018281;28;20416;-79
2021/12/04 04:06:59;;;;;;;1.70;1.60;;;-5.20;99.90;;;;;;5016201;28;20473;-78
2021/12/04 04:09:29;;;;;;;1.70;1.60;;;-5.10;99.90;;;;;;5017693;28;20789;-81
2021/12/04 04:11:55;;;;;;;2.20;2.10;;;-5.10;99.90;;;;;;5016901;28;20405;-74
2021/12/04 04:14:22;;;;;;;1.97;1.87;;;-4.60;99.90;;;;;;5017384;28;20406;-78
2021/12/04 04:16:48;;;;;;;1.33;1.33;;;-4.90;99.90;;;;;;5032510;28;20455;-76
2021/12/04 04:19:14;;;;;;;1.70;1.60;;;-4.00;99.90;;;;;;5017111;28;20837;-74
2021/12/04 04:21:41;;;;;;;2.00;1.67;;;-3.50;99.90;;;;;;5016310;28;20186;-73
2021/12/04 04:24:13;;;;;;;1.70;1.53;;;-4.20;99.90;;;;;;5017263;28;20257;-72
2021/12/04 04:26:39;;;;;;;1.97;1.87;;;-4.70;99.90;;;;;;5017401;28;20571;-71
2021/12/04 04:29:06;;;;;;;1.90;1.80;;;-3.80;99.90;;;;;;5016773;28;20478;-71
2021/12/04 04:31:34;;;;;;;2.03;1.93;;;-4.60;99.90;;;;;;5016886;28;20404;-72
2021/12/04 04:34:06;;;;;;;1.40;1.30;;;-4.90;99.90;;;;;;5015381;28;20531;-72
2021/12/04 05:11:22;;;;;;;2.30;2.20;;;-5.70;99.90;;;;;;5020243;28;20414;-75
2021/12/04 05:13:50;;;;;;;2.80;2.67;;;-5.70;99.90;;;;;;5020627;28;20400;-75
2021/12/04 05:16:17;;;;;;;2.47;2.37;;;-5.70;99.90;;;;;;5021233;28;20405;-79
2021/12/04 05:18:55;;;;;;;1.50;1.40;;;-5.50;99.90;;;;;;5021337;28;20436;-72
2021/12/04 05:21:21;;;;;;;1.93;1.83;;;-5.70;99.90;;;;;;5036563;28;20973;-73
2021/12/04 05:23:51;;;;;;;4.97;1.80;;;-5.60;99.90;;;;;;5021901;28;20496;-73
2021/12/04 05:26:28;;;;;;;3.17;2.20;;;-3.40;99.90;;;;;;5021061;28;20172;-76
2021/12/04 05:28:56;;;;;;;2.27;2.17;;;-5.00;99.90;;;;;;5021999;28;20523;-74
2021/12/04 05:31:22;;;;;;;2.63;2.50;;;-4.00;99.90;;;;;;5020321;28;20406;-74
2021/12/04 05:33:48;;;;;;;2.90;2.70;;;-4.90;99.90;;;;;;5020246;28;20429;-72
2021/12/04 05:36:15;;;;;;;3.53;3.23;;;-5.10;99.90;;;;;;5020142;28;20433;-75
2021/12/04 05:38:40;;;;;;;2.60;2.40;;;-5.60;99.90;;;;;;5018969;28;20424;-73
2021/12/04 05:41:07;;;;;;;3.37;3.17;;;-4.80;99.90;;;;;;5019929;28;20413;-74
2021/12/04 05:43:34;;;;;;;3.37;3.07;;;-5.30;99.90;;;;;;5021215;28;20176;-77
2021/12/04 05:54:02;;;;;;;3.97;3.57;;;-5.50;99.90;;;;;;5019990;28;20549;-76
2021/12/04 05:56:29;;;;;;;3.77;3.53;;;-6.00;99.90;;;;;;5019878;28;20826;-74
2021/12/04 05:58:56;;;;;;;4.07;3.77;;;-6.00;99.90;;;;;;5020492;28;20407;-74
2021/12/04 06:01:23;;;;;;;3.97;3.20;;;-6.00;99.90;;;;;;5018705;28;20468;-72
2021/12/04 06:03:49;;;;;;;3.50;3.30;;;-5.70;99.90;;;;;;5017254;28;20423;-71
2021/12/04 06:06:16;;;;;;;3.73;3.50;;;-6.10;99.90;;;;;;5018367;28;20765;-73
2021/12/04 06:08:42;;;;;;;4.43;4.03;;;-6.10;99.90;;;;;;5018707;28;20203;-72
2021/12/04 06:11:08;;;;;;;3.50;3.23;;;-6.10;99.90;;;;;;5017789;28;20474;-72
2021/12/04 06:13:34;;;;;;;3.87;3.47;;;-5.80;99.90;;;;;;5019180;28;20179;-74
2021/12/04 06:15:59;;;;;;;3.43;3.23;;;-5.40;99.90;;;;;;5018165;28;20408;-72
2021/12/04 06:18:25;;;;;;;4.23;3.40;;;-5.50;99.90;;;;;;5033910;28;20186;-74
2021/12/04 06:23:36;;;;;;;4.63;4.23;;;-4.50;99.90;;;;;;5018175;28;20184;-77
2021/12/04 06:26:02;;;;;;;4.27;3.90;;;-5.20;99.90;;;;;;5017893;28;20409;-75
2021/12/04 06:28:28;;;;;;;3.83;3.53;;;-5.50;99.90;;;;;;5018011;28;20456;-72
2021/12/04 06:30:55;;;;;;;4.60;4.30;;;-5.40;99.90;;;;;;5016646;28;20408;-72
2021/12/04 06:33:21;;;;;;;4.13;3.70;;;-4.20;99.90;;;;;;5017909;28;20433;-76
2021/12/04 06:35:48;;;;;;;4.23;3.83;;;-4.70;99.90;;;;;;5017875;28;20410;-71
2021/12/04 06:38:17;;;;;;;4.73;4.33;;;-5.80;99.90;;;;;;5017716;28;20434;-74
2021/12/04 06:40:44;;;;;;;4.40;4.00;;;-4.70;99.90;;;;;;5017687;28;20415;-75
2021/12/04 06:43:10;;;;;;;3.57;3.37;;;-4.30;99.90;;;;;;5017550;28;20399;-71
2021/12/04 06:45:41;;;;;;;4.83;4.30;;;-5.90;99.90;;;;;;5018136;28;20408;-73
2021/12/04 06:48:10;;;;;;;4.37;3.97;;;-5.70;99.90;;;;;;5017696;28;20219;-75
2021/12/04 06:50:56;;;;;;;4.93;4.50;;;-5.40;99.90;;;;;;5018170;28;20471;-74
2021/12/04 06:53:58;;;;;;;4.40;3.97;;;-5.60;99.90;;;;;;5018447;28;20405;-78
2021/12/04 06:56:15;;;;;;;4.40;4.03;;;-5.80;99.90;;;;;;5019506;28;20500;-74
2021/12/04 06:58:41;;;;;;;5.57;5.07;;;-5.70;99.90;;;;;;5018199;28;20420;-77
2021/12/04 07:01:10;;;;;;;3.90;3.57;;;-4.10;99.90;;;;;;5018047;28;20405;-74
2021/12/04 07:03:37;;;;;;;5.47;3.97;;;-5.60;99.90;;;;;;5018373;28;20225;-79
2021/12/04 07:06:03;;;;;;;3.40;3.17;;;-5.50;99.90;;;;;;5019142;28;20492;-76
2021/12/04 07:08:29;;;;;;;6.00;4.37;;;-5.50;99.90;;;;;;5018302;28;20539;-73
2021/12/04 07:10:55;;;;;;;4.40;4.03;;;-5.70;99.90;;;;;;5016873;28;20222;-77
2021/12/04 07:13:20;;;;;;;4.73;4.33;;;-5.30;99.90;;;;;;5017708;28;20401;-78
2021/12/04 07:15:47;;;;;;;6.27;4.33;;;-5.40;99.90;;;;;;5018649;28;20564;-83
2021/12/04 07:18:14;;;;;;;3.90;3.60;;;-5.10;99.90;;;;;;5019623;28;20186;-76
2021/12/04 07:20:40;;;;;;;4.90;4.50;;;-5.10;99.90;;;;;;5018373;28;20417;-84
2021/12/04 07:23:06;;;;;;;5.97;5.37;;;-5.20;99.90;;;;;;5018880;28;20829;-83
2021/12/04 07:25:32;;;;;;;8.00;5.90;;;-5.40;99.90;;;;;;5018144;28;20176;-83
2021/12/04 07:27:59;;;;;;;7.80;6.13;;;-5.00;99.90;;;;;;5018678;28;20452;-80
2021/12/04 07:30:25;;;;;;;6.57;5.87;;;-4.80;99.90;;;;;;5018768;28;20182;-73
2021/12/04 07:32:53;;;;;;;5.93;4.50;;;-5.80;99.90;;;;;;5018159;28;20501;-83
2021/12/04 07:35:19;;;;;;;4.43;4.07;;;-4.20;99.90;;;;;;5019015;28;20423;-76
2021/12/04 07:37:47;;;;;;;4.50;4.10;;;-5.60;99.90;;;;;;5018729;28;20479;-82
2021/12/04 07:40:13;;;;;;;4.93;4.33;;;-5.80;99.90;;;;;;5019182;28;20182;-83
2021/12/04 07:42:39;;;;;;;5.83;5.33;;;-4.70;99.90;;;;;;5017692;28;20424;-80
2021/12/04 07:45:07;;;;;;;4.53;4.13;;;-5.60;99.90;;;;;;5019105;28;20638;-86
2021/12/04 07:47:33;;;;;;;4.77;4.37;;;-5.40;99.90;;;;;;5019230;28;20215;-83
2021/12/04 07:50:00;;;;;;;4.47;4.17;;;-5.40;99.90;;;;;;5018950;28;20408;-82
2021/12/04 07:52:26;;;;;;;4.90;4.27;;;-4.80;99.90;;;;;;5019254;28;20173;-82
2021/12/04 07:54:51;;;;;;;3.87;3.57;;;-5.20;99.90;;;;;;5018371;28;20409;-77
2021/12/04 07:57:17;;;;;;;5.03;4.63;;;-5.50;99.90;;;;;;5019217;28;20168;-80
2021/12/04 07:59:44;;;;;;;4.53;3.87;;;-5.20;99.90;;;;;;5017708;28;20194;-76
2021/12/04 08:02:09;;;;;;;3.43;3.23;;;-5.10;99.90;;;;;;5017673;28;20241;-77
2021/12/04 08:04:35;;;;;;;4.33;4.00;;;-5.40;99.90;;;;;;5017039;28;20894;-80
2021/12/04 08:07:01;;;;;;;3.43;3.20;;;-5.60;99.90;;;;;;5017924;28;20169;-79
2021/12/04 08:09:27;;;;;;;4.13;3.83;;;-5.30;99.90;;;;;;5016969;28;20238;-72
2021/12/04 08:11:53;;;;;;;4.80;4.37;;;-5.00;99.90;;;;;;5017129;28;20755;-76
2021/12/04 08:14:18;;;;;;;4.57;4.17;;;-5.90;99.90;;;;;;5016710;28;20199;-76
2021/12/04 08:16:45;;;;;;;4.93;4.43;;;-4.50;99.90;;;;;;5032217;28;20182;-74
2021/12/04 08:19:11;;;;;;;4.57;4.07;;;-5.70;99.90;;;;;;5031903;28;20184;-71
2021/12/04 08:21:39;;;;;;;6.10;4.57;;;-5.30;99.90;;;;;;5016648;28;20413;-73
2021/12/04 08:24:18;;;;;;;4.83;4.33;;;-5.50;99.90;;;;;;5014962;28;20427;-72
2021/12/04 08:26:52;;;;;;;4.80;3.23;;;-5.50;99.90;;;;;;5021234;28;20872;-73
2021/12/04 08:29:21;;;;;;;4.40;3.80;;;-4.40;99.90;;;;;;5035444;28;20465;-73
2021/12/04 08:31:48;;;;;;;4.10;3.80;;;-5.80;99.90;;;;;;5022284;28;20436;-76
2021/12/04 08:34:19;;;;;;;4.20;3.90;;;-5.80;99.90;;;;;;5019741;28;20188;-83
2021/12/04 08:36:46;;;;;;;4.87;4.40;;;-5.60;99.90;;;;;;5019595;28;20433;-75
2021/12/04 08:39:12;;;;;;;6.80;4.60;;;-5.80;99.90;;;;;;5018470;28;20475;-73
2021/12/04 08:41:38;;;;;;;6.57;5.17;;;-5.70;99.90;;;;;;5023514;28;20422;-76
2021/12/04 08:44:04;;;;;;;4.37;3.97;;;-6.40;99.90;;;;;;5029882;28;20401;-73
2021/12/04 08:46:31;;;;;;;3.73;3.50;;;-6.60;99.90;;;;;;5029672;28;20200;-75
2021/12/04 08:48:57;;;;;;;4.13;3.83;;;-6.20;99.90;;;;;;5018889;28;20294;-73
2021/12/04 08:51:24;;;;;;;4.03;3.73;;;-5.50;99.90;;;;;;5022069;28;20492;-74
2021/12/04 08:53:52;;;;;;;3.50;3.30;;;-5.10;99.90;;;;;;5019230;28;20174;-73
2021/12/04 08:56:18;;;;;;;3.57;3.20;;;-4.80;99.90;;;;;;5034408;28;20506;-73
2021/12/04 08:58:44;;;;;;;7.53;3.60;;;-5.20;99.90;;;;;;5037759;28;20180;-74
2021/12/04 09:01:14;;;;;;;3.93;2.90;;;-4.70;99.90;;;;;;5039095;28;20176;-75
2021/12/04 09:03:44;;;;;;;3.37;2.97;;;-6.30;99.90;;;;;;5038825;28;20200;-78
2021/12/04 09:06:10;;;;;;;3.23;3.03;;;-5.30;99.90;;;;;;5039727;28;20852;-78
2021/12/04 09:08:38;;;;;;;4.53;3.80;;;-4.60;99.90;;;;;;5038726;28;20543;-74
2021/12/04 09:11:13;;;;;;;9.03;4.00;;;-5.20;99.90;;;;;;5039874;28;20176;-74
2021/12/04 09:13:40;;;;;;;3.70;3.43;;;-5.10;99.90;;;;;;5037824;28;20749;-75
2021/12/04 09:16:07;;;;;;;2.93;2.73;;;-4.70;99.90;;;;;;5037009;28;20713;-74
2021/12/04 09:18:34;;;;;;;3.23;2.97;;;-3.40;99.90;;;;;;5037994;28;20249;-74
2021/12/04 09:21:02;;;;;;;9.17;3.17;;;-4.70;99.90;;;;;;5038626;28;20437;-74
2021/12/04 09:23:35;;;;;;;3.67;3.03;;;-3.00;99.90;;;;;;5037575;28;20420;-76
2021/12/04 09:26:03;;;;;;;5.37;3.20;;;-2.90;99.90;;;;;;5038561;28;20456;-76
2021/12/04 10:01:09;;;;;;;6.13;3.90;;;-4.90;99.90;;;;;;5034144;28;20381;-85
2021/12/04 10:06:30;;;;;;;6.23;4.47;;;-5.00;99.90;;;;;;5019630;28;20615;-75
2021/12/04 10:33:54;;;;;;;13.70;6.90;;;-3.00;99.90;;;;;;5017258;28;20472;-76
2021/12/04 10:36:35;;;;;;;20.23;7.63;;;-2.00;99.90;;;;;;5016273;28;20180;-76
2021/12/04 10:39:04;;;;;;;64.10;10.33;;;-5.30;99.90;;;;;;5017397;28;20678;-77
2021/12/04 10:41:32;;;;;;;28.33;9.67;;;-5.00;99.90;;;;;;5016084;28;21121;-79
2021/12/04 10:44:21;;;;;;;15.67;8.13;;;-2.80;99.90;;;;;;5017334;28;20179;-80
2021/12/04 10:46:56;;;;;;;19.10;9.40;;;-4.40;99.90;;;;;;5017273;28;20451;-78
2021/12/04 10:52:48;;;;;;;17.17;7.43;;;-4.20;99.90;;;;;;5018931;28;20956;-79
2021/12/04 11:01:06;;;;;;;63.43;14.80;;;-6.00;99.90;;;;;;5016211;28;20837;-76
2021/12/04 11:06:44;;;;;;;27.43;8.03;;;-5.20;99.90;;;;;;5018757;28;20498;-75
2021/12/04 11:43:03;;;;;;;3.63;3.33;;;-4.20;99.90;;;;;;5019431;28;20466;-75
2021/12/04 11:45:45;;;;;;;3.87;3.57;;;-3.90;99.90;;;;;;5028125;28;20408;-75
2021/12/04 11:48:11;;;;;;;4.00;3.60;;;-2.90;99.90;;;;;;5031874;28;20464;-76
2021/12/04 11:50:42;;;;;;;5.40;3.47;;;-4.20;99.90;;;;;;5015962;28;20443;-76
2021/12/04 11:53:17;;;;;;;6.70;4.07;;;-4.50;99.90;;;;;;5033142;28;20394;-77
2021/12/04 11:55:46;;;;;;;4.17;3.57;;;-4.90;99.90;;;;;;5031330;28;20403;-77
2021/12/04 11:58:25;;;;;;;4.03;3.70;;;-5.00;99.90;;;;;;5015852;28;20412;-76
2021/12/04 12:01:21;;;;;;;4.33;3.77;;;-5.00;99.90;;;;;;5014744;28;20554;-76
2021/12/04 12:03:55;;;;;;;4.97;4.47;;;-4.60;99.90;;;;;;5022443;28;20421;-72
2021/12/04 12:06:35;;;;;;;6.83;3.93;;;-4.60;99.90;;;;;;5029197;28;20470;-70
2021/12/04 12:09:08;;;;;;;4.47;3.87;;;-4.50;99.90;;;;;;5035840;28;20444;-71
2021/12/04 12:11:35;;;;;;;5.37;4.20;;;-4.10;99.90;;;;;;5034854;28;20400;-71
2021/12/04 12:14:08;;;;;;;10.37;4.40;;;-5.70;99.90;;;;;;5035561;28;20400;-73
2021/12/04 12:16:39;;;;;;;4.93;4.47;;;-4.20;99.90;;;;;;5035555;28;20422;-72
2021/12/04 12:19:12;;;;;;;5.30;4.50;;;-4.30;99.90;;;;;;5035770;28;20415;-70
2021/12/04 12:21:55;;;;;;;4.33;4.00;;;-1.80;99.90;;;;;;5035592;28;20400;-74
2021/12/04 12:27:45;;;;;;;5.30;4.37;;;-3.40;99.90;;;;;;5035551;28;20512;-73
2021/12/04 12:33:28;;;;;;;4.87;3.67;;;-2.80;99.90;;;;;;5035578;28;20445;-72
2021/12/04 12:39:00;;;;;;;4.83;4.33;;;-3.90;99.90;;;;;;5019290;28;20470;-73
2021/12/04 12:41:39;;;;;;;5.47;4.33;;;-3.80;99.90;;;;;;5044759;28;20417;-72
2021/12/04 12:44:25;;;;;;;4.63;4.17;;;-3.70;99.90;;;;;;5055239;28;20432;-72
2021/12/04 12:47:15;;;;;;;49.03;6.73;;;-3.90;99.90;;;;;;5053837;28;20433;-71
2021/12/04 12:49:44;;;;;;;5.83;4.70;;;-3.80;99.90;;;;;;5054811;28;20461;-71
2021/12/04 12:52:21;;;;;;;7.37;4.93;;;-3.60;99.90;;;;;;5054996;28;20405;-73
2021/12/04 12:54:55;;;;;;;4.73;4.10;;;-4.30;99.90;;;;;;5054559;28;20431;-70
2021/12/04 12:57:25;;;;;;;9.77;5.43;;;-3.00;99.90;;;;;;5055025;28;20394;-72
2021/12/04 13:12:13;;;;;;;10.30;5.63;;;-1.80;99.90;;;;;;5094521;28;20546;-72
2021/12/04 13:14:42;;;;;;;6.43;5.40;;;-3.20;99.90;;;;;;5096865;28;20400;-73
2021/12/04 13:17:17;;;;;;;6.30;5.03;;;-3.60;99.90;;;;;;5072738;28;20431;-76
2021/12/04 13:19:48;;;;;;;12.47;5.27;;;-3.50;99.90;;;;;;5057666;28;20402;-73
2021/12/04 13:22:33;;;;;;;6.73;5.90;;;-3.40;99.90;;;;;;5058259;28;20397;-77
2021/12/04 13:25:06;;;;;;;6.90;5.80;;;-3.00;99.90;;;;;;5057857;28;20841;-75
2021/12/04 13:30:09;;;;;;;6.70;6.07;;;-4.50;99.90;;;;;;5058210;28;20406;-75
2021/12/04 13:32:40;;;;;;;5.57;5.07;;;-4.90;99.90;;;;;;5058046;28;20400;-74
2021/12/04 13:35:17;;;;;;;6.63;4.97;;;-4.50;99.90;;;;;;5056887;28;20419;-74
2021/12/04 13:37:44;;;;;;;7.80;5.47;;;-4.30;99.90;;;;;;5057865;28;20517;-73
2021/12/04 13:40:13;;;;;;;5.17;4.67;;;-3.70;99.90;;;;;;5057529;28;20399;-75
2021/12/04 13:42:40;;;;;;;7.13;5.17;;;-4.70;99.90;;;;;;5057927;28;20396;-76
2021/12/04 13:45:10;;;;;;;6.97;4.33;;;-4.40;99.90;;;;;;5056787;28;20423;-77
2021/12/04 13:47:37;;;;;;;5.27;4.63;;;-5.00;99.90;;;;;;5056490;28;20439;-77
2021/12/04 13:52:54;;;;;;;6.77;6.10;;;-5.00;99.90;;;;;;5057307;28;20407;-75
2021/12/04 13:55:21;;;;;;;5.03;4.57;;;-4.00;99.90;;;;;;5056656;28;20403;-74
2021/12/04 13:57:47;;;;;;;10.83;5.60;;;-2.90;99.90;;;;;;5057613;28;20225;-74
2021/12/04 14:00:15;;;;;;;5.93;4.50;;;-5.20;99.90;;;;;;5057451;28;20401;-75
2021/12/04 14:02:41;;;;;;;8.23;5.17;;;-3.00;99.90;;;;;;5057614;28;20488;-75
2021/12/04 14:05:14;;;;;;;4.60;4.20;;;-3.90;99.90;;;;;;5057298;28;20431;-78
2021/12/04 14:07:48;;;;;;;4.60;4.23;;;-5.90;99.90;;;;;;5057250;28;20431;-73
2021/12/04 14:10:18;;;;;;;6.33;3.63;;;-5.50;99.90;;;;;;5056247;28;20765;-75
2021/12/04 14:12:45;;;;;;;3.70;3.40;;;-6.50;99.90;;;;;;5057349;28;20400;-73
2021/12/04 14:15:14;;;;;;;9.30;3.93;;;-6.00;99.90;;;;;;5057128;28;20405;-75
2021/12/04 14:17:40;;;;;;;5.57;4.53;;;-6.90;99.90;;;;;;5057374;28;20877;-78
2021/12/04 14:20:07;;;;;;;5.93;4.20;;;-7.00;99.90;;;;;;5057072;28;20400;-74
2021/12/04 14:22:43;;;;;;;7.07;3.67;;;-6.60;99.90;;;;;;5055723;28;20414;-77
2021/12/04 14:25:09;;;;;;;5.03;3.50;;;-4.70;99.90;;;;;;5057005;28;20832;-75
2021/12/04 14:27:37;;;;;;;3.37;2.47;;;-7.30;99.90;;;;;;5056141;28;20414;-78
2021/12/04 14:30:18;;;;;;;5.80;2.87;;;-6.00;99.90;;;;;;5056044;28;20243;-79
2021/12/04 14:32:52;;;;;;;6.90;3.30;;;-6.30;99.90;;;;;;5057019;28;20411;-78
2021/12/04 14:35:19;;;;;;;9.83;2.90;;;-7.50;99.90;;;;;;5056933;28;20408;-78
2021/12/04 14:37:49;;;;;;;4.17;2.20;;;-7.10;99.90;;;;;;5056909;28;20789;-76
2021/12/04 14:40:22;;;;;;;6.30;3.00;;;-4.40;99.90;;;;;;5056706;28;20406;-73
2021/12/04 14:42:49;;;;;;;9.53;2.37;;;-5.50;99.90;;;;;;5056860;28;20397;-75
2021/12/04 14:45:25;;;;;;;8.00;3.40;;;-5.50;99.90;;;;;;5056731;28;20392;-76
2021/12/04 14:47:55;;;;;;;5.83;2.60;;;-5.40;99.90;;;;;;5056308;28;20474;-79
2021/12/04 14:50:23;;;;;;;7.73;2.93;;;-2.60;99.90;;;;;;5056409;28;20400;-76
2021/12/04 14:52:52;;;;;;;6.23;2.33;;;-5.10;99.90;;;;;;5056569;28;20391;-77
2021/12/04 14:55:27;;;;;;;9.33;3.00;;;-3.20;99.90;;;;;;5056510;28;20397;-74
2021/12/04 14:57:54;;;;;;;5.40;2.63;;;-5.10;99.90;;;;;;5056504;28;20869;-75
2021/12/04 15:00:27;;;;;;;16.10;2.90;;;-4.30;99.90;;;;;;5055266;28;20885;-75
2021/12/04 15:03:12;;;;;;;9.23;3.17;;;-5.80;99.90;;;;;;5056345;28;20406;-74
2021/12/04 15:05:46;;;;;;;7.17;3.13;;;-5.50;99.90;;;;;;5055153;28;20426;-74
2021/12/04 15:08:20;;;;;;;6.53;3.10;;;-4.70;99.90;;;;;;5056284;28;20450;-78
2021/12/04 15:11:08;;;;;;;10.37;3.17;;;-4.50;99.90;;;;;;5055267;28;20416;-75
2021/12/04 15:13:51;;;;;;;4.73;3.50;;;-4.60;99.90;;;;;;5057765;28;20479;-76
2021/12/04 15:16:20;;;;;;;3.90;3.50;;;-2.70;99.90;;;;;;5057256;28;20525;-78
2021/12/04 15:18:47;;;;;;;12.77;4.27;;;-4.40;99.90;;;;;;5057434;28;20412;-80
2021/12/04 15:21:17;;;;;;;10.07;4.00;;;-4.80;99.90;;;;;;5056478;28;20404;-80
2021/12/04 15:23:45;;;;;;;7.37;3.57;;;-4.90;99.90;;;;;;5056066;28;20879;-79
2021/12/04 15:26:20;;;;;;;9.53;3.50;;;-4.90;99.90;;;;;;5054976;28;20465;-77
2021/12/04 15:28:49;;;;;;;9.53;3.97;;;-4.20;99.90;;;;;;5055814;28;20485;-75
2021/12/04 15:31:18;;;;;;;7.03;3.77;;;-4.60;99.90;;;;;;5055813;28;20492;-77
2021/12/04 15:33:47;;;;;;;7.83;3.30;;;-4.30;99.90;;;;;;5055723;28;20706;-77
2021/12/04 15:36:40;;;;;;;6.53;4.10;;;-4.50;99.90;;;;;;5055275;28;20503;-79
2021/12/04 15:39:14;;;;;;;11.37;4.37;;;-3.10;99.90;;;;;;5055677;28;20394;-78
2021/12/04 15:47:13;;;;;;;8.10;4.57;;;-2.80;99.90;;;;;;5055300;28;20521;-74
2021/12/04 15:50:21;;;;;;;13.83;3.23;;;-5.80;99.90;;;;;;5055331;28;20464;-76
2021/12/04 15:55:21;;;;;;;12.10;3.17;;;-5.00;99.90;;;;;;5055673;28;20415;-79
2021/12/04 15:57:56;;;;;;;14.43;4.27;;;-4.20;99.90;;;;;;5055553;28;20869;-78
2021/12/04 16:00:26;;;;;;;8.63;3.30;;;-4.70;99.90;;;;;;5055700;28;20489;-78
2021/12/04 16:02:58;;;;;;;7.77;3.00;;;-6.00;99.90;;;;;;5055343;28;20399;-83
2021/12/04 16:05:28;;;;;;;11.40;3.43;;;-5.50;99.90;;;;;;5055579;28;20412;-76
2021/12/04 16:08:06;;;;;;;9.93;4.67;;;-5.90;99.90;;;;;;5055294;28;20446;-76
2021/12/04 16:10:38;;;;;;;6.10;3.50;;;-4.70;99.90;;;;;;5055476;28;20407;-81
2021/12/04 16:13:06;;;;;;;10.77;3.47;;;-6.00;99.90;;;;;;5055429;28;20425;-80
2021/12/04 16:15:32;;;;;;;12.30;3.07;;;-6.40;99.90;;;;;;5054306;28;20407;-79
2021/12/04 16:17:58;;;;;;;10.03;3.03;;;-4.80;99.90;;;;;;5053892;28;20912;-78
2021/12/04 16:20:24;;;;;;;7.87;3.73;;;-3.90;99.90;;;;;;5055407;28;20173;-77
2021/12/04 16:22:52;;;;;;;10.20;3.87;;;-4.60;99.90;;;;;;5055361;28;20401;-75
2021/12/04 16:25:25;;;;;;;10.37;3.27;;;-5.10;99.90;;;;;;5055256;28;20405;-75
2021/12/04 16:30:36;;;;;;;5.93;4.33;;;-5.50;99.90;;;;;;5055237;28;20396;-74